Time;durP1;ratioP1;P1;durP2;ratioP2;P2;SDS_P1;SDS_P2;PMS_P1;PMS_P2;Temp;Humidity;BMP_temperature;BMP_pressure;BME280_temperature;BME280_humidity;BME280_pressure;Samples;Min_cycle;Max_cycle;Signal;HPM_P1;HPM_P2
2023/11/05 00:00:21;;;;;;;0.73;0.70;;;;;;;11.07;87.62;96524.56;5033798;28;20231;-83
2023/11/05 00:02:47;;;;;;;0.70;0.50;;;;;;;11.06;88.04;96516.84;5036332;28;20202;-83
2023/11/05 00:05:14;;;;;;;1.33;0.70;;;;;;;11.08;87.78;96505.34;5050026;28;20204;-81
2023/11/05 00:07:41;;;;;;;1.33;0.67;;;;;;;10.96;88.79;96503.78;5036805;28;20242;-82
2023/11/05 00:10:08;;;;;;;0.60;0.60;;;;;;;10.99;89.01;96498.28;5032018;28;20234;-83
2023/11/05 00:12:34;;;;;;;1.43;0.90;;;;;;;11.04;88.54;96500.50;5032002;28;20201;-84
2023/11/05 00:15:01;;;;;;;0.60;0.60;;;;;;;11.05;87.91;96513.41;5032689;28;20298;-82
2023/11/05 00:17:29;;;;;;;1.20;0.60;;;;;;;11.05;88.13;96504.78;5030200;28;20206;-83
2023/11/05 00:19:55;;;;;;;0.63;0.60;;;;;;;11.05;88.45;96509.97;5029139;28;20251;-83
2023/11/05 00:22:22;;;;;;;2.63;0.70;;;;;;;10.97;89.38;96484.53;5037408;28;20219;-82
2023/11/05 00:24:48;;;;;;;1.23;0.90;;;;;;;10.95;89.22;96493.47;5031170;28;20199;-83
2023/11/05 00:27:14;;;;;;;0.67;0.60;;;;;;;11.01;88.72;96491.16;5030327;28;20234;-84
2023/11/05 00:29:41;;;;;;;3.70;0.80;;;;;;;10.99;88.44;96494.84;5039206;28;20225;-83
2023/11/05 00:32:08;;;;;;;1.40;0.70;;;;;;;11.08;88.30;96499.28;5039927;28;20209;-83
2023/11/05 00:34:36;;;;;;;1.27;0.60;;;;;;;11.02;88.11;96502.41;5040670;28;20282;-84
2023/11/05 00:37:03;;;;;;;1.30;0.80;;;;;;;10.97;89.34;96488.94;5031100;28;20214;-82
2023/11/05 00:39:29;;;;;;;0.73;0.73;;;;;;;10.95;90.06;96472.59;5033163;28;20246;-84
2023/11/05 00:41:56;;;;;;;0.50;0.50;;;;;;;11.00;89.77;96481.69;5035070;28;20234;-83
2023/11/05 00:44:22;;;;;;;0.73;0.60;;;;;;;11.02;89.66;96473.69;5030945;28;20203;-83
2023/11/05 00:46:49;;;;;;;0.70;0.70;;;;;;;11.09;89.20;96480.06;5029865;28;20208;-83
2023/11/05 00:49:15;;;;;;;0.73;0.60;;;;;;;11.10;89.12;96485.16;5032556;28;20252;-84
2023/11/05 00:51:43;;;;;;;0.77;0.70;;;;;;;11.17;88.92;96488.06;5030922;28;20574;-83
2023/11/05 00:54:10;;;;;;;1.30;0.80;;;;;;;11.24;88.75;96496.22;5029746;28;20213;-84
2023/11/05 00:56:36;;;;;;;0.53;0.53;;;;;;;11.28;88.91;96495.00;5043711;28;20280;-82
2023/11/05 00:59:03;;;;;;;0.73;0.60;;;;;;;11.26;89.52;96489.09;5045841;28;20230;-82
2023/11/05 01:01:29;;;;;;;0.60;0.60;;;;;;;11.19;89.83;96472.28;5035922;28;20271;-83
2023/11/05 01:03:56;;;;;;;0.60;0.60;;;;;;;11.13;90.16;96469.22;5037827;28;20208;-83
2023/11/05 01:06:22;;;;;;;1.47;0.87;;;;;;;11.16;89.90;96472.53;5050416;28;20671;-83
2023/11/05 01:08:50;;;;;;;0.87;0.70;;;;;;;11.18;89.41;96471.47;5051088;28;20217;-83
2023/11/05 01:11:16;;;;;;;1.53;0.80;;;;;;;11.16;89.32;96472.53;5053368;28;20202;-81
2023/11/05 01:13:43;;;;;;;0.70;0.70;;;;;;;11.15;89.61;96474.31;5055775;28;20201;-83
2023/11/05 01:16:10;;;;;;;1.33;0.50;;;;;;;11.28;89.13;96476.72;5056819;28;20259;-84
2023/11/05 01:18:37;;;;;;;1.03;0.70;;;;;;;11.28;89.25;96485.38;5056744;28;20271;-84
2023/11/05 01:21:03;;;;;;;1.93;0.80;;;;;;;11.21;89.54;96480.81;5056252;28;20213;-84
2023/11/05 01:23:30;;;;;;;1.83;0.90;;;;;;;11.20;89.05;96476.53;5053328;28;20207;-84
2023/11/05 01:25:58;;;;;;;3.27;1.00;;;;;;;11.24;89.20;96476.16;5044222;28;20297;-84
2023/11/05 01:28:25;;;;;;;1.27;0.70;;;;;;;11.13;89.25;96479.66;5053339;28;20210;-82
2023/11/05 01:30:51;;;;;;;0.83;0.70;;;;;;;11.17;90.07;96464.56;5049757;28;20255;-84
2023/11/05 01:33:18;;;;;;;1.37;0.67;;;;;;;11.19;89.37;96473.09;5054139;28;20290;-85
2023/11/05 01:35:44;;;;;;;1.20;0.70;;;;;;;11.18;89.06;96481.91;5046497;28;20226;-85
2023/11/05 01:38:10;;;;;;;2.20;0.90;;;;;;;11.25;88.95;96472.56;5057624;28;20680;-84
2023/11/05 01:40:37;;;;;;;2.13;0.73;;;;;;;11.11;89.39;96478.16;5059326;28;20228;-84
2023/11/05 01:43:05;;;;;;;1.00;0.90;;;;;;;11.23;89.17;96474.47;5059037;28;20228;-85
2023/11/05 01:45:31;;;;;;;1.17;0.90;;;;;;;11.24;89.45;96473.53;5061697;28;20194;-83
2023/11/05 01:47:57;;;;;;;1.23;1.00;;;;;;;11.18;89.29;96461.03;5071883;28;20193;-84
2023/11/05 01:50:25;;;;;;;2.23;0.90;;;;;;;11.10;89.41;96455.63;5059571;28;20225;-81
2023/11/05 01:52:55;;;;;;;3.13;0.77;;;;;;;11.28;89.92;96448.00;5062138;28;20469;-84
2023/11/05 01:55:22;;;;;;;1.77;0.90;;;;;;;11.29;89.07;96457.47;5055549;28;20229;-81
2023/11/05 01:57:49;;;;;;;1.20;0.90;;;;;;;11.31;88.84;96463.38;5041263;28;20212;-84
2023/11/05 02:00:18;;;;;;;1.20;0.90;;;;;;;11.37;89.03;96460.25;5035085;28;20226;-81
2023/11/05 02:02:44;;;;;;;0.80;0.80;;;;;;;11.42;87.94;96473.75;5050237;28;20205;-81
2023/11/05 02:05:11;;;;;;;1.53;1.30;;;;;;;11.45;87.58;96485.69;5053552;28;20195;-81
2023/11/05 02:07:37;;;;;;;1.00;0.70;;;;;;;11.30;89.08;96467.78;5050509;28;20202;-80
2023/11/05 02:10:06;;;;;;;1.23;0.80;;;;;;;11.26;89.19;96448.13;5050852;28;20242;-80
2023/11/05 02:12:33;;;;;;;1.83;0.80;;;;;;;11.33;88.81;96448.41;5051052;28;20216;-83
2023/11/05 02:14:59;;;;;;;2.83;1.13;;;;;;;11.24;89.02;96452.66;5037156;28;20318;-83
2023/11/05 02:17:27;;;;;;;1.80;0.73;;;;;;;11.19;88.40;96448.78;5038187;28;20215;-83
2023/11/05 02:19:55;;;;;;;2.60;1.03;;;;;;;11.33;87.39;96457.06;5032824;28;20237;-81
2023/11/05 02:22:22;;;;;;;2.50;0.90;;;;;;;11.31;87.08;96477.25;5035025;28;20208;-80
2023/11/05 02:24:50;;;;;;;2.80;1.00;;;;;;;11.41;87.01;96476.47;5047875;28;20586;-81
2023/11/05 02:27:16;;;;;;;3.33;0.90;;;;;;;11.33;86.78;96493.63;5053760;28;20680;-81
2023/11/05 02:29:43;;;;;;;2.30;0.90;;;;;;;11.40;86.17;96499.16;5054294;28;20226;-83
2023/11/05 02:32:09;;;;;;;2.60;1.00;;;;;;;11.19;86.74;96501.81;5054464;28;20661;-83
2023/11/05 02:34:36;;;;;;;1.73;0.93;;;;;;;11.19;86.85;96498.38;5055165;28;20198;-83
2023/11/05 02:37:03;;;;;;;1.03;0.70;;;;;;;11.32;86.65;96491.97;5052366;28;20202;-84
2023/11/05 02:39:29;;;;;;;2.97;1.17;;;;;;;11.32;86.55;96502.44;5055891;28;20752;-83
2023/11/05 02:41:57;;;;;;;2.33;0.80;;;;;;;11.35;86.30;96503.94;5041863;28;20202;-83
2023/11/05 02:44:24;;;;;;;1.77;0.80;;;;;;;11.41;86.03;96498.19;5054499;28;20410;-82
2023/11/05 02:46:50;;;;;;;3.80;0.90;;;;;;;11.31;85.79;96505.97;5054175;28;20198;-81
2023/11/05 02:49:17;;;;;;;1.93;0.90;;;;;;;11.39;85.85;96505.31;5053814;28;20229;-80
2023/11/05 02:51:43;;;;;;;1.33;0.73;;;;;;;11.43;85.64;96504.09;5053659;28;20210;-81
2023/11/05 02:54:10;;;;;;;2.73;0.90;;;;;;;11.28;85.28;96519.31;5046820;28;20224;-84
2023/11/05 02:56:36;;;;;;;1.77;0.97;;;;;;;11.33;85.93;96500.63;5047100;28;20234;-82
2023/11/05 02:59:04;;;;;;;1.50;0.90;;;;;;;11.35;85.24;96500.50;5052690;28;20611;-80
2023/11/05 03:01:30;;;;;;;2.67;0.80;;;;;;;11.42;85.44;96504.25;5053255;28;20206;-81
2023/11/05 03:03:57;;;;;;;2.37;1.07;;;;;;;11.51;84.52;96512.09;5055132;28;20216;-82
2023/11/05 03:06:25;;;;;;;1.37;0.63;;;;;;;11.52;84.78;96524.22;5050988;28;20202;-82
2023/11/05 03:08:51;;;;;;;3.27;0.93;;;;;;;11.48;84.42;96522.81;5054551;28;20213;-83
2023/11/05 03:11:17;;;;;;;1.70;1.00;;;;;;;11.45;84.90;96517.84;5045463;28;20206;-83
2023/11/05 03:13:44;;;;;;;2.57;1.13;;;;;;;11.46;84.62;96514.31;5045345;28;20206;-82
2023/11/05 03:16:12;;;;;;;0.87;0.83;;;;;;;11.44;84.82;96511.00;5053794;28;20227;-83
2023/11/05 03:18:40;;;;;;;1.80;1.03;;;;;;;11.50;84.50;96507.03;5053104;28;20237;-80
2023/11/05 03:21:06;;;;;;;6.37;1.03;;;;;;;11.50;84.77;96515.69;5052780;28;20256;-81
2023/11/05 03:23:33;;;;;;;1.90;0.90;;;;;;;11.45;84.41;96525.69;5054502;28;20214;-83
2023/11/05 03:25:59;;;;;;;4.37;0.80;;;;;;;11.49;84.93;96511.41;5054249;28;20224;-81
2023/11/05 03:28:25;;;;;;;1.67;0.73;;;;;;;11.45;84.75;96512.63;5053096;28;20203;-81
2023/11/05 03:30:52;;;;;;;1.90;0.70;;;;;;;11.46;84.56;96522.13;5053188;28;20231;-81
2023/11/05 03:33:19;;;;;;;1.67;0.90;;;;;;;11.47;84.50;96515.13;5054462;28;20685;-82
2023/11/05 03:35:46;;;;;;;3.03;0.77;;;;;;;11.42;83.85;96535.59;5044319;28;20737;-81
2023/11/05 03:38:12;;;;;;;2.40;0.90;;;;;;;11.37;84.31;96535.16;5053372;28;20201;-81
2023/11/05 03:40:39;;;;;;;4.17;1.27;;;;;;;11.44;84.42;96531.06;5054510;28;20225;-83
2023/11/05 03:43:05;;;;;;;2.03;0.90;;;;;;;11.56;84.61;96522.19;5053745;28;20210;-82
2023/11/05 03:45:32;;;;;;;3.23;0.90;;;;;;;11.65;84.24;96525.78;5037177;28;20204;-84
2023/11/05 03:47:58;;;;;;;2.97;0.87;;;;;;;11.63;83.95;96536.34;5053691;28;20202;-81
2023/11/05 03:50:26;;;;;;;1.93;0.90;;;;;;;11.69;83.34;96548.06;5052675;28;20230;-81
2023/11/05 03:52:52;;;;;;;4.33;1.43;;;;;;;11.72;83.42;96551.22;5053085;28;20207;-83
2023/11/05 03:55:19;;;;;;;3.03;1.00;;;;;;;11.75;83.16;96557.16;5053237;28;20225;-81
2023/11/05 03:57:45;;;;;;;1.57;0.70;;;;;;;11.73;83.50;96552.91;5052854;28;20216;-83
2023/11/05 04:00:13;;;;;;;3.13;1.00;;;;;;;11.76;83.46;96550.97;5052448;28;20223;-84
2023/11/05 04:02:39;;;;;;;4.00;1.20;;;;;;;11.78;83.36;96555.09;5054772;28;20625;-84
2023/11/05 04:05:06;;;;;;;1.43;1.00;;;;;;;11.80;83.02;96554.97;5051872;28;20211;-84
2023/11/05 04:07:34;;;;;;;3.57;0.90;;;;;;;11.82;83.16;96559.09;5051093;28;20216;-81
2023/11/05 04:10:00;;;;;;;1.43;0.90;;;;;;;11.63;83.03;96574.69;5053384;28;20223;-81
2023/11/05 04:12:27;;;;;;;5.57;1.20;;;;;;;11.69;83.67;96548.06;5052502;28;20205;-81
2023/11/05 04:14:53;;;;;;;2.80;1.07;;;;;;;11.79;83.12;96554.13;5053312;28;20204;-82
2023/11/05 04:17:20;;;;;;;4.90;0.97;;;;;;;11.81;82.87;96554.81;5051736;28;20693;-81
2023/11/05 04:19:46;;;;;;;2.73;0.70;;;;;;;11.84;82.36;96570.25;5052946;28;20231;-81
2023/11/05 04:22:12;;;;;;;2.73;0.80;;;;;;;11.85;82.34;96573.69;5053258;28;20204;-84
2023/11/05 04:24:40;;;;;;;3.13;1.00;;;;;;;11.90;82.56;96567.13;5043691;28;20211;-83
2023/11/05 04:27:07;;;;;;;3.13;0.83;;;;;;;11.92;82.22;96565.22;5034722;28;20255;-81
2023/11/05 04:29:33;;;;;;;2.17;1.00;;;;;;;11.95;82.59;96556.28;5051172;28;20231;-81
2023/11/05 04:32:00;;;;;;;7.37;1.50;;;;;;;11.90;83.05;96550.63;5054121;28;20206;-81
2023/11/05 04:34:27;;;;;;;2.13;0.73;;;;;;;11.91;83.17;96547.03;5053388;28;20706;-81
2023/11/05 04:36:54;;;;;;;3.40;0.80;;;;;;;11.86;83.42;96538.78;5049083;28;20219;-81
2023/11/05 04:39:20;;;;;;;2.63;0.87;;;;;;;11.73;83.62;96532.00;5054529;28;20221;-82
2023/11/05 04:41:48;;;;;;;1.87;1.03;;;;;;;11.81;83.63;96528.69;5037324;28;20231;-83
2023/11/05 04:44:14;;;;;;;1.73;0.73;;;;;;;11.79;84.35;96514.13;5053630;28;20205;-81
2023/11/05 04:46:41;;;;;;;3.70;0.90;;;;;;;11.85;84.23;96503.97;5054932;28;20211;-81
2023/11/05 04:49:08;;;;;;;2.57;0.70;;;;;;;11.84;84.38;96493.66;5057551;28;20221;-83
2023/11/05 04:51:34;;;;;;;2.10;1.00;;;;;;;11.88;84.86;96488.03;5057979;28;20213;-83
2023/11/05 04:54:00;;;;;;;2.37;1.07;;;;;;;11.84;85.61;96463.13;5057773;28;20204;-81
2023/11/05 04:56:27;;;;;;;4.53;0.80;;;;;;;11.88;85.95;96454.06;5056959;28;20226;-83
2023/11/05 04:58:54;;;;;;;2.53;0.83;;;;;;;11.89;86.35;96460.13;5057399;28;20234;-83
2023/11/05 05:01:21;;;;;;;3.63;1.00;;;;;;;11.88;86.37;96438.38;5058271;28;20221;-84
2023/11/05 05:03:48;;;;;;;3.97;1.30;;;;;;;11.76;88.73;96409.91;5055938;28;20253;-84
2023/11/05 05:06:14;;;;;;;4.07;0.93;;;;;;;11.69;88.93;96397.41;5045119;28;20200;-81
2023/11/05 05:08:40;;;;;;;2.73;1.13;;;;;;;11.75;88.61;96384.72;5048121;28;20205;-83
2023/11/05 05:11:07;;;;;;;4.97;0.93;;;;;;;11.64;88.75;96383.91;5057130;28;20574;-84
2023/11/05 05:13:33;;;;;;;1.93;0.90;;;;;;;11.71;89.74;96363.28;5057464;28;20198;-81
2023/11/05 05:16:03;;;;;;;1.00;0.70;;;;;;;11.76;89.54;96355.88;5056931;28;20236;-81
2023/11/05 05:18:29;;;;;;;2.40;0.83;;;;;;;11.77;89.64;96343.63;5057101;28;20281;-84
2023/11/05 05:20:56;;;;;;;3.13;0.93;;;;;;;11.79;89.78;96332.06;5056223;28;20730;-81
2023/11/05 05:23:22;;;;;;;3.77;1.10;;;;;;;11.80;90.07;96333.72;5057011;28;20673;-83
2023/11/05 05:25:48;;;;;;;2.70;1.10;;;;;;;11.80;90.01;96325.88;5056826;28;20197;-81
2023/11/05 05:28:15;;;;;;;2.77;0.90;;;;;;;11.80;90.68;96310.22;5056400;28;20208;-83
2023/11/05 05:30:42;;;;;;;2.67;0.90;;;;;;;11.84;90.22;96314.19;5055704;28;20255;-83
2023/11/05 05:33:09;;;;;;;1.33;0.63;;;;;;;11.83;90.93;96299.50;5041927;28;20208;-81
2023/11/05 05:35:36;;;;;;;2.60;0.70;;;;;;;11.84;90.79;96306.34;5049936;28;20235;-82
2023/11/05 05:38:04;;;;;;;1.03;0.60;;;;;;;11.84;90.82;96293.28;5043553;28;20207;-81
2023/11/05 05:40:30;;;;;;;3.93;1.07;;;;;;;11.85;90.87;96294.09;5056828;28;20314;-81
2023/11/05 05:42:56;;;;;;;3.13;0.87;;;;;;;11.83;90.76;96288.19;5072718;28;20307;-83
2023/11/05 05:45:23;;;;;;;0.70;0.50;;;;;;;11.84;90.58;96295.91;5056512;28;20214;-82
2023/11/05 05:47:49;;;;;;;3.80;1.07;;;;;;;11.82;90.94;96295.22;5056211;28;20673;-83
2023/11/05 05:50:17;;;;;;;1.17;0.80;;;;;;;11.83;91.08;96290.81;5056498;28;20793;-82
2023/11/05 05:52:44;;;;;;;2.47;0.93;;;;;;;11.78;90.91;96293.03;5056400;28;20206;-82
2023/11/05 05:55:14;;;;;;;1.83;0.90;;;;;;;11.78;91.29;96283.41;5056820;28;20203;-83
2023/11/05 05:57:41;;;;;;;3.10;0.80;;;;;;;11.79;90.84;96279.00;5055823;28;20225;-84
2023/11/05 06:00:09;;;;;;;2.83;0.80;;;;;;;11.71;91.54;96279.69;5056922;28;20757;-84
2023/11/05 06:02:36;;;;;;;2.43;0.70;;;;;;;11.73;91.12;96270.75;5057357;28;20680;-81
2023/11/05 06:05:02;;;;;;;2.00;0.70;;;;;;;11.68;91.87;96274.75;5055372;28;20263;-83
2023/11/05 06:07:31;;;;;;;1.50;0.60;;;;;;;11.69;91.54;96269.41;5053109;28;20202;-83
2023/11/05 06:09:57;;;;;;;3.07;0.80;;;;;;;11.63;92.30;96269.91;5057024;28;20696;-81
2023/11/05 06:12:24;;;;;;;4.27;1.30;;;;;;;11.53;93.77;96245.59;5057092;28;20206;-81
2023/11/05 06:14:50;;;;;;;2.10;0.90;;;;;;;11.56;93.36;96234.91;5057060;28;20204;-82
2023/11/05 06:17:17;;;;;;;2.37;0.70;;;;;;;11.58;93.40;96237.38;5056250;28;20229;-82
2023/11/05 06:19:43;;;;;;;1.30;0.60;;;;;;;11.62;92.91;96234.34;5057035;28;20228;-83
2023/11/05 06:22:10;;;;;;;2.70;0.80;;;;;;;11.42;94.24;96230.91;5055219;28;20207;-83
2023/11/05 06:24:39;;;;;;;2.37;0.70;;;;;;;11.55;94.12;96221.97;5056716;28;20221;-83
2023/11/05 06:27:06;;;;;;;1.57;0.80;;;;;;;11.58;93.66;96226.94;5056838;28;20208;-82
2023/11/05 06:29:32;;;;;;;1.67;0.63;;;;;;;11.61;93.89;96217.00;5056357;28;20389;-81
2023/11/05 06:31:59;;;;;;;3.07;1.20;;;;;;;11.65;93.42;96226.19;5056510;28;20204;-81
2023/11/05 06:34:25;;;;;;;1.63;0.60;;;;;;;11.71;93.00;96224.81;5057308;28;20593;-84
2023/11/05 06:36:55;;;;;;;2.80;1.10;;;;;;;11.70;92.87;96231.84;5046705;28;20226;-82
2023/11/05 06:39:22;;;;;;;1.63;0.67;;;;;;;11.76;92.54;96238.31;5044370;28;20221;-84
2023/11/05 06:41:50;;;;;;;1.53;0.80;;;;;;;11.69;93.18;96240.66;5056080;28;21047;-83
2023/11/05 06:44:16;;;;;;;0.90;0.70;;;;;;;11.72;93.31;96236.94;5058055;28;20205;-83
2023/11/05 06:46:43;;;;;;;1.60;0.67;;;;;;;11.71;93.77;96237.88;5056761;28;20201;-83
2023/11/05 06:49:09;;;;;;;1.83;0.60;;;;;;;11.67;94.20;96221.69;5057637;28;20723;-83
2023/11/05 06:51:36;;;;;;;0.83;0.63;;;;;;;11.71;94.31;96223.06;5056359;28;20212;-81
2023/11/05 06:54:02;;;;;;;2.13;0.90;;;;;;;11.74;94.04;96224.56;5056822;28;20201;-83
2023/11/05 06:56:29;;;;;;;2.23;0.70;;;;;;;11.70;94.39;96220.56;5048396;28;20304;-84
2023/11/05 06:58:56;;;;;;;5.37;1.00;;;;;;;11.64;94.81;96221.16;5047818;28;20220;-83
2023/11/05 07:01:24;;;;;;;1.17;0.70;;;;;;;11.70;94.53;96215.34;5056938;28;20202;-84
2023/11/05 07:03:51;;;;;;;2.67;0.60;;;;;;;11.71;94.69;96217.84;5055854;28;20240;-84
2023/11/05 07:06:18;;;;;;;3.60;0.90;;;;;;;11.73;94.02;96221.13;5041480;28;20293;-83
2023/11/05 07:08:44;;;;;;;1.50;0.60;;;;;;;11.79;93.33;96231.97;5052980;28;20686;-83
2023/11/05 07:11:11;;;;;;;3.20;0.67;;;;;;;11.89;92.91;96243.25;5042874;28;20708;-84
2023/11/05 07:13:37;;;;;;;1.77;0.70;;;;;;;11.89;92.37;96251.09;5056836;28;20211;-84
2023/11/05 07:16:06;;;;;;;0.70;0.50;;;;;;;11.87;92.91;96253.81;5056451;28;20699;-84
2023/11/05 07:18:32;;;;;;;3.33;0.70;;;;;;;11.93;92.63;96255.06;5055716;28;20679;-84
2023/11/05 07:21:00;;;;;;;0.90;0.70;;;;;;;11.89;92.90;96269.38;5039330;28;20226;-84
2023/11/05 07:23:26;;;;;;;1.00;0.60;;;;;;;11.94;92.81;96263.75;5056875;28;20220;-84
2023/11/05 07:25:54;;;;;;;1.80;0.50;;;;;;;11.89;92.99;96275.44;5056191;28;20206;-83
2023/11/05 07:28:21;;;;;;;2.13;0.70;;;;;;;11.96;92.73;96267.84;5055604;28;20699;-84
2023/11/05 07:30:47;;;;;;;1.40;0.67;;;;;;;11.92;92.77;96277.75;5055816;28;20229;-84
2023/11/05 07:33:15;;;;;;;2.23;0.43;;;;;;;12.00;92.17;96279.69;5056288;28;20552;-84
2023/11/05 07:35:42;;;;;;;1.30;0.50;;;;;;;12.03;91.09;96289.88;5050454;28;20212;-83
2023/11/05 07:38:09;;;;;;;1.13;0.70;;;;;;;12.06;90.88;96310.47;5048804;28;20226;-84
2023/11/05 07:40:35;;;;;;;2.37;0.50;;;;;;;12.05;90.72;96315.84;5053132;28;20586;-84
2023/11/05 07:43:01;;;;;;;0.40;0.40;;;;;;;12.08;90.63;96329.44;5056505;28;20202;-83
2023/11/05 07:45:28;;;;;;;1.13;0.70;;;;;;;12.12;90.38;96335.22;5056306;28;20213;-83
2023/11/05 07:47:54;;;;;;;2.03;0.50;;;;;;;12.09;90.59;96341.56;5047362;28;20209;-83
2023/11/05 07:50:23;;;;;;;0.80;0.60;;;;;;;11.97;91.37;96336.63;5056108;28;20232;-84
2023/11/05 07:52:49;;;;;;;2.43;0.80;;;;;;;12.08;90.87;96332.06;5056526;28;20215;-84
2023/11/05 07:55:16;;;;;;;1.20;0.40;;;;;;;12.12;90.72;96330.81;5051254;28;20209;-84
2023/11/05 07:57:43;;;;;;;0.50;0.50;;;;;;;11.99;92.20;96316.41;5045361;28;20232;-84
2023/11/05 08:00:15;;;;;;;2.77;0.60;;;;;;;12.02;91.86;96309.09;5055862;28;20217;-82
2023/11/05 08:02:41;;;;;;;2.07;0.53;;;;;;;11.85;93.20;96292.34;5055311;28;20220;-84
2023/11/05 08:05:08;;;;;;;1.73;0.67;;;;;;;12.00;92.95;96281.47;5040783;28;20212;-84
2023/11/05 08:07:36;;;;;;;2.00;0.77;;;;;;;11.97;92.77;96279.97;5055568;28;20230;-84
2023/11/05 08:10:06;;;;;;;1.93;0.50;;;;;;;12.17;92.13;96285.97;5045695;28;20209;-82
2023/11/05 08:12:32;;;;;;;1.20;0.40;;;;;;;12.25;92.15;96290.47;5059753;28;20260;-82
2023/11/05 08:14:59;;;;;;;1.80;0.50;;;;;;;12.20;92.61;96296.13;5068835;28;20181;-82
2023/11/05 08:17:25;;;;;;;1.07;0.60;;;;;;;12.31;92.01;96295.97;5062548;28;20301;-82
2023/11/05 08:19:52;;;;;;;1.27;0.30;;;;;;;12.37;91.30;96315.50;5046699;28;20228;-83
2023/11/05 08:22:18;;;;;;;1.70;0.50;;;;;;;12.42;91.02;96328.16;5039985;28;20235;-82
2023/11/05 08:24:47;;;;;;;1.13;0.47;;;;;;;12.24;91.34;96320.22;5037853;28;20201;-81
2023/11/05 08:27:14;;;;;;;3.23;0.80;;;;;;;12.32;90.63;96328.16;5045893;28;20199;-81
2023/11/05 08:29:40;;;;;;;1.57;0.50;;;;;;;12.34;90.71;96341.94;5037522;28;20241;-83
2023/11/05 08:32:07;;;;;;;1.73;0.50;;;;;;;12.29;90.86;96349.38;5046908;28;20210;-80
2023/11/05 08:34:34;;;;;;;1.13;0.40;;;;;;;12.37;90.10;96353.88;5045106;28;20209;-82
2023/11/05 08:37:00;;;;;;;1.73;0.57;;;;;;;12.37;89.60;96369.56;5044560;28;20259;-82
2023/11/05 08:39:27;;;;;;;2.13;0.60;;;;;;;12.41;89.19;96381.44;5038522;28;20308;-84
2023/11/05 08:41:56;;;;;;;1.37;0.60;;;;;;;12.45;89.27;96388.03;5052552;28;20237;-81
2023/11/05 08:44:22;;;;;;;1.30;0.63;;;;;;;12.39;89.27;96406.88;5049196;28;20729;-82
2023/11/05 08:46:49;;;;;;;0.93;0.60;;;;;;;12.43;89.24;96403.84;5051386;28;20208;-81
2023/11/05 08:49:15;;;;;;;4.40;0.50;;;;;;;12.51;88.53;96417.06;5050280;28;20231;-81
2023/11/05 08:51:42;;;;;;;2.63;0.63;;;;;;;12.41;87.94;96428.50;5050728;28;20206;-81
2023/11/05 08:54:08;;;;;;;0.50;0.47;;;;;;;12.40;87.53;96440.75;5052349;28;20200;-83
2023/11/05 08:56:34;;;;;;;2.03;0.70;;;;;;;12.54;87.55;96449.94;5041801;28;20209;-82
2023/11/05 08:59:02;;;;;;;0.57;0.50;;;;;;;12.58;87.37;96460.97;5044865;28;20237;-82
2023/11/05 09:01:29;;;;;;;2.23;0.60;;;;;;;12.65;87.95;96462.06;5048703;28;20698;-80
2023/11/05 09:03:55;;;;;;;0.97;0.40;;;;;;;12.75;86.90;96477.75;5053847;28;20211;-83
2023/11/05 09:06:23;;;;;;;2.00;0.60;;;;;;;12.80;86.29;96475.53;5042928;28;20210;-80
2023/11/05 09:08:50;;;;;;;0.83;0.50;;;;;;;12.86;86.02;96482.81;5043869;28;20209;-80
2023/11/05 09:11:16;;;;;;;2.07;0.63;;;;;;;12.83;86.55;96490.94;5048504;28;20210;-83
2023/11/05 09:13:42;;;;;;;2.23;0.50;;;;;;;12.85;86.72;96496.88;5054927;28;20208;-82
2023/11/05 09:16:11;;;;;;;1.10;0.40;;;;;;;12.81;86.01;96508.59;5054937;28;20208;-82
2023/11/05 09:18:37;;;;;;;2.37;0.50;;;;;;;12.78;85.13;96524.56;5053958;28;20233;-83
2023/11/05 09:21:05;;;;;;;1.17;0.40;;;;;;;12.82;85.87;96525.94;5035357;28;20222;-81
2023/11/05 09:23:32;;;;;;;1.40;0.50;;;;;;;12.71;85.98;96529.53;5056968;28;20579;-81
2023/11/05 09:25:59;;;;;;;0.63;0.40;;;;;;;12.65;85.74;96540.56;5053525;28;20322;-83
2023/11/05 09:28:25;;;;;;;3.30;0.63;;;;;;;12.65;86.15;96543.16;5052145;28;20203;-82
2023/11/05 09:30:53;;;;;;;0.97;0.40;;;;;;;12.69;86.65;96523.63;5051861;28;20223;-84
2023/11/05 09:33:22;;;;;;;1.17;0.50;;;;;;;12.69;85.31;96542.75;5056389;28;20286;-82
2023/11/05 09:35:48;;;;;;;2.13;0.73;;;;;;;12.77;86.27;96533.38;5057521;28;20263;-83
2023/11/05 09:38:15;;;;;;;2.30;0.50;;;;;;;12.76;84.84;96550.03;5055498;28;20226;-83
2023/11/05 09:40:41;;;;;;;0.80;0.70;;;;;;;12.96;85.93;96535.94;5057983;28;20234;-83
2023/11/05 09:43:10;;;;;;;0.70;0.50;;;;;;;13.07;85.91;96546.28;5057017;28;20216;-81
2023/11/05 09:45:37;;;;;;;1.90;0.50;;;;;;;13.12;83.99;96582.50;5056500;28;20205;-82
2023/11/05 09:48:06;;;;;;;1.23;0.60;;;;;;;13.06;82.71;96620.56;5056958;28;20694;-82
2023/11/05 09:50:35;;;;;;;1.73;0.60;;;;;;;13.13;82.90;96638.34;5041301;28;20273;-81
2023/11/05 09:53:05;;;;;;;1.57;0.43;;;;;;;13.21;81.83;96643.69;5034991;28;20564;-82
2023/11/05 09:55:32;;;;;;;0.80;0.50;;;;;;;13.03;81.08;96665.34;5038495;28;20671;-82
2023/11/05 09:58:00;;;;;;;0.47;0.27;;;;;;;13.04;82.58;96672.25;5036398;28;20227;-82
2023/11/05 10:00:27;;;;;;;0.80;0.60;;;;;;;13.16;83.79;96633.66;5035750;28;20237;-81
2023/11/05 10:02:57;;;;;;;2.27;0.70;;;;;;;13.22;84.15;96627.84;5036101;28;20291;-80
2023/11/05 10:05:24;;;;;;;2.80;1.23;;;;;;;13.27;85.32;96609.09;5036233;28;20230;-78
2023/11/05 10:07:52;;;;;;;0.93;0.57;;;;;;;13.30;82.68;96640.28;5036413;28;20209;-81
2023/11/05 10:10:19;;;;;;;3.70;0.80;;;;;;;13.50;89.81;96552.81;5038728;28;20226;-83
2023/11/05 10:12:46;;;;;;;0.70;0.50;;;;;;;13.48;83.31;96620.25;5034942;28;20211;-84
2023/11/05 10:15:13;;;;;;;0.57;0.40;;;;;;;13.49;82.35;96658.56;5038534;28;20624;-87
2023/11/05 10:17:40;;;;;;;0.30;0.30;;;;;;;13.56;83.99;96643.13;5034840;28;20228;-84
2023/11/05 10:20:10;;;;;;;3.47;2.87;;;;;;;13.40;82.00;96680.38;5037489;28;20739;-85
2023/11/05 10:22:42;;;;;;;1.70;0.70;;;;;;;13.55;83.75;96644.09;5038702;28;20214;-87
2023/11/05 10:25:22;;;;;;;0.30;0.27;;;;;;;13.59;82.25;96679.50;5038439;28;20210;-83
2023/11/05 10:27:49;;;;;;;0.30;0.30;;;;;;;13.54;81.02;96694.84;5033400;28;20574;-82
2023/11/05 10:30:18;;;;;;;0.30;0.30;;;;;;;13.77;82.26;96687.47;5035422;28;20310;-82
2023/11/05 10:32:46;;;;;;;6.47;2.10;;;;;;;13.82;84.39;96687.88;5033531;28;20214;-81
2023/11/05 10:35:14;;;;;;;0.37;0.27;;;;;;;13.88;81.49;96695.19;5035503;28;20263;-83
2023/11/05 10:37:41;;;;;;;0.87;0.50;;;;;;;13.84;81.46;96704.31;5035442;28;20228;-81
2023/11/05 10:40:12;;;;;;;0.40;0.40;;;;;;;13.95;80.31;96713.78;5034697;28;20225;-82
2023/11/05 10:42:39;;;;;;;5.77;0.50;;;;;;;14.08;80.23;96753.63;5036590;28;20692;-80
2023/11/05 10:45:08;;;;;;;1.43;1.00;;;;;;;14.16;80.92;96752.94;5035600;28;20670;-82
2023/11/05 10:47:35;;;;;;;0.30;0.30;;;;;;;14.12;80.47;96754.19;5035430;28;20206;-81
2023/11/05 10:50:04;;;;;;;1.70;0.60;;;;;;;14.08;80.67;96760.69;5035655;28;20221;-80
2023/11/05 10:52:43;;;;;;;0.82;0.20;;;;;;;13.87;80.02;96773.97;4698990;28;10000776;-81
2023/11/05 10:55:12;;;;;;;0.40;0.40;;;;;;;14.01;81.10;96764.84;5032521;28;20400;-82
2023/11/05 10:57:43;;;;;;;0.63;0.30;;;;;;;13.74;80.67;96781.31;5031694;28;20234;-82
2023/11/05 11:00:44;;;;;;;0.63;0.30;;;;;;;13.56;82.14;96765.44;5033117;28;20220;-81
2023/11/05 11:03:12;;;;;;;1.50;0.30;;;;;;;13.85;83.81;96720.84;5027986;28;20204;-81
2023/11/05 11:06:05;;;;;;;0.67;0.33;;;;;;;13.72;84.18;96704.63;5032518;28;20696;-79
2023/11/05 11:08:35;;;;;;;0.60;0.20;;;;;;;13.97;84.73;96690.03;5032322;28;20227;-81
2023/11/05 11:11:14;;;;;;;1.70;0.20;;;;;;;13.98;84.16;96686.47;5031550;28;20273;-81
2023/11/05 11:13:56;;;;;;;0.60;0.53;;;;;;;13.90;82.89;96701.09;5033738;28;20253;-82
2023/11/05 11:16:26;;;;;;;1.43;0.33;;;;;;;13.86;82.33;96718.09;5025784;28;20212;-81
2023/11/05 11:18:54;;;;;;;0.90;0.80;;;;;;;13.51;83.17;96713.44;5050592;28;20280;-82
2023/11/05 11:21:21;;;;;;;0.30;0.30;;;;;;;13.59;83.24;96713.56;5042500;28;20562;-82
2023/11/05 11:23:49;;;;;;;2.10;0.40;;;;;;;13.86;83.48;96707.59;5049232;28;20202;-81
2023/11/05 11:26:26;;;;;;;0.20;0.20;;;;;;;13.93;81.67;96730.63;5035822;28;20269;-80
2023/11/05 11:29:01;;;;;;;0.50;0.20;;;;;;;14.15;82.42;96746.00;5052150;28;20272;-81
2023/11/05 11:31:28;;;;;;;0.30;0.30;;;;;;;14.29;81.51;96756.06;5046950;28;20211;-82
2023/11/05 11:33:54;;;;;;;0.40;0.30;;;;;;;14.38;81.24;96774.53;5051573;28;20219;-82